sensor_id;sensor_type;location;lat;lon;timestamp;pressure;altitude;pressure_sealevel;temperature;humidity
11643;BME280;5877;50.930;6.918;2022-10-20T00:01:52;101052.38;;;9.65;78.24
11643;BME280;5877;50.930;6.918;2022-10-20T00:04:19;101260.00;;;11.19;78.74
11643;BME280;5877;50.930;6.918;2022-10-20T00:06:45;101245.25;;;11.18;78.54
11643;BME280;5877;50.930;6.918;2022-10-20T00:09:12;100913.47;;;9.11;78.39
11643;BME280;5877;50.930;6.918;2022-10-20T00:11:39;100880.72;;;8.87;78.14
11643;BME280;5877;50.930;6.918;2022-10-20T00:14:05;101129.38;;;10.53;78.59
11643;BME280;5877;50.930;6.918;2022-10-20T00:16:35;101018.59;;;9.84;78.75
11643;BME280;5877;50.930;6.918;2022-10-20T00:19:02;101157.81;;;10.50;79.46
11643;BME280;5877;50.930;6.918;2022-10-20T00:21:29;101165.91;;;10.48;79.57
11643;BME280;5877;50.930;6.918;2022-10-20T00:24:00;101094.25;;;9.93;80.09
11643;BME280;5877;50.930;6.918;2022-10-20T00:26:28;100938.97;;;8.96;79.88
11643;BME280;5877;50.930;6.918;2022-10-20T00:28:56;101060.06;;;9.67;79.57
11643;BME280;5877;50.930;6.918;2022-10-20T00:31:24;101083.16;;;9.91;79.90
11643;BME280;5877;50.930;6.918;2022-10-20T00:33:52;101197.47;;;10.74;79.63
11643;BME280;5877;50.930;6.918;2022-10-20T00:36:20;101208.03;;;11.07;78.34
11643;BME280;5877;50.930;6.918;2022-10-20T00:38:48;100879.38;;;8.98;78.21
11643;BME280;5877;50.930;6.918;2022-10-20T00:41:18;101094.03;;;10.36;78.05
11643;BME280;5877;50.930;6.918;2022-10-20T00:43:50;101202.19;;;10.99;78.22
11643;BME280;5877;50.930;6.918;2022-10-20T00:46:22;101114.19;;;10.42;78.35
11643;BME280;5877;50.930;6.918;2022-10-20T00:48:56;100873.28;;;8.84;78.36
11643;BME280;5877;50.930;6.918;2022-10-20T00:51:27;100990.63;;;9.50;78.49
11643;BME280;5877;50.930;6.918;2022-10-20T00:54:04;100914.22;;;8.98;78.46
11643;BME280;5877;50.930;6.918;2022-10-20T00:56:34;100910.59;;;8.99;79.27
11643;BME280;5877;50.930;6.918;2022-10-20T00:59:01;101143.28;;;10.34;79.43
11643;BME280;5877;50.930;6.918;2022-10-20T01:01:30;101042.72;;;9.72;79.86
11643;BME280;5877;50.930;6.918;2022-10-20T01:03:57;100975.41;;;9.25;79.45
11643;BME280;5877;50.930;6.918;2022-10-20T01:06:25;100961.03;;;9.15;79.46
11643;BME280;5877;50.930;6.918;2022-10-20T01:08:53;101149.31;;;10.41;79.33
11643;BME280;5877;50.930;6.918;2022-10-20T01:17:13;101139.88;;;10.60;78.78
11643;BME280;5877;50.930;6.918;2022-10-20T01:25:45;101137.38;;;10.25;79.60
11643;BME280;5877;50.930;6.918;2022-10-20T01:31:11;101071.38;;;9.74;80.22
11643;BME280;5877;50.930;6.918;2022-10-20T01:33:50;101113.88;;;10.04;79.93
11643;BME280;5877;50.930;6.918;2022-10-20T01:36:36;100776.69;;;7.92;79.38
11643;BME280;5877;50.930;6.918;2022-10-20T01:39:13;101134.72;;;10.19;79.40
11643;BME280;5877;50.930;6.918;2022-10-20T01:41:55;100999.00;;;9.32;79.98
11643;BME280;5877;50.930;6.918;2022-10-20T01:44:27;101101.34;;;9.99;79.44
11643;BME280;5877;50.930;6.918;2022-10-20T01:46:55;100960.84;;;9.16;79.60
11643;BME280;5877;50.930;6.918;2022-10-20T01:49:24;101117.59;;;10.23;79.36
11643;BME280;5877;50.930;6.918;2022-10-20T01:51:52;101019.94;;;9.66;78.56
11643;BME280;5877;50.930;6.918;2022-10-20T01:54:24;100909.78;;;8.99;78.57
11643;BME280;5877;50.930;6.918;2022-10-20T02:00:15;101004.41;;;9.65;78.21
11643;BME280;5877;50.930;6.918;2022-10-20T02:05:43;100846.22;;;8.70;78.59
11643;BME280;5877;50.930;6.918;2022-10-20T02:08:15;100885.22;;;9.00;78.32
11643;BME280;5877;50.930;6.918;2022-10-20T02:10:47;100765.88;;;8.30;77.50
11643;BME280;5877;50.930;6.918;2022-10-20T02:13:17;100770.81;;;8.46;77.52
11643;BME280;5877;50.930;6.918;2022-10-20T02:15:50;101064.34;;;10.35;77.79
11643;BME280;5877;50.930;6.918;2022-10-20T02:18:23;101077.28;;;10.37;77.67
11643;BME280;5877;50.930;6.918;2022-10-20T02:20:54;101069.81;;;10.34;77.58
11643;BME280;5877;50.930;6.918;2022-10-20T02:23:22;100849.81;;;9.04;77.27
11643;BME280;5877;50.930;6.918;2022-10-20T02:25:50;101076.88;;;10.33;77.51
11643;BME280;5877;50.930;6.918;2022-10-20T02:28:19;100919.84;;;9.36;77.11
11643;BME280;5877;50.930;6.918;2022-10-20T02:30:47;101074.66;;;10.37;77.38
11643;BME280;5877;50.930;6.918;2022-10-20T02:33:15;100943.50;;;9.63;77.18
11643;BME280;5877;50.930;6.918;2022-10-20T02:35:49;101072.84;;;10.37;77.41
11643;BME280;5877;50.930;6.918;2022-10-20T02:38:17;100904.13;;;9.36;76.79
11643;BME280;5877;50.930;6.918;2022-10-20T02:40:43;101028.34;;;10.16;76.96
11643;BME280;5877;50.930;6.918;2022-10-20T02:43:10;100829.41;;;8.93;77.03
11643;BME280;5877;50.930;6.918;2022-10-20T02:45:40;101051.03;;;10.30;77.43
11643;BME280;5877;50.930;6.918;2022-10-20T02:48:07;101026.00;;;10.28;77.53
11643;BME280;5877;50.930;6.918;2022-10-20T02:50:37;100964.97;;;9.99;76.68
11643;BME280;5877;50.930;6.918;2022-10-20T02:53:04;100891.47;;;9.53;76.71
11643;BME280;5877;50.930;6.918;2022-10-20T02:55:31;100953.88;;;9.91;76.17
11643;BME280;5877;50.930;6.918;2022-10-20T02:57:58;100799.81;;;8.92;76.15
11643;BME280;5877;50.930;6.918;2022-10-20T03:00:24;100792.31;;;8.76;76.57
11643;BME280;5877;50.930;6.918;2022-10-20T03:02:54;100624.09;;;7.80;76.21
11643;BME280;5877;50.930;6.918;2022-10-20T03:05:21;100929.81;;;9.74;76.28
11643;BME280;5877;50.930;6.918;2022-10-20T03:07:48;101025.81;;;10.36;76.44
11643;BME280;5877;50.930;6.918;2022-10-20T03:10:15;101025.81;;;10.36;76.80
11643;BME280;5877;50.930;6.918;2022-10-20T03:12:42;100454.13;;;6.71;75.80
11643;BME280;5877;50.930;6.918;2022-10-20T03:15:08;100979.28;;;9.97;76.70
11643;BME280;5877;50.930;6.918;2022-10-20T03:17:35;100661.47;;;7.87;76.65
11643;BME280;5877;50.930;6.918;2022-10-20T03:20:03;100797.00;;;8.94;75.97
11643;BME280;5877;50.930;6.918;2022-10-20T03:22:31;101015.91;;;10.31;76.12
11643;BME280;5877;50.930;6.918;2022-10-20T03:24:57;100856.72;;;9.25;75.99
11643;BME280;5877;50.930;6.918;2022-10-20T03:27:24;100815.38;;;9.07;75.73
11643;BME280;5877;50.930;6.918;2022-10-20T03:29:50;101016.72;;;10.38;75.61
11643;BME280;5877;50.930;6.918;2022-10-20T03:32:17;100687.16;;;8.11;75.64
11643;BME280;5877;50.930;6.918;2022-10-20T03:34:44;100650.31;;;8.06;75.51
11643;BME280;5877;50.930;6.918;2022-10-20T03:37:11;100950.66;;;9.95;75.54
11643;BME280;5877;50.930;6.918;2022-10-20T03:39:38;100800.50;;;9.14;75.64
11643;BME280;5877;50.930;6.918;2022-10-20T03:42:05;100893.34;;;9.79;75.31
11643;BME280;5877;50.930;6.918;2022-10-20T03:44:31;100880.84;;;9.88;74.91
11643;BME280;5877;50.930;6.918;2022-10-20T03:46:58;100899.56;;;9.65;75.59
11643;BME280;5877;50.930;6.918;2022-10-20T03:49:25;100841.84;;;9.38;75.62
11643;BME280;5877;50.930;6.918;2022-10-20T03:51:52;100547.41;;;7.60;75.22
11643;BME280;5877;50.930;6.918;2022-10-20T03:54:18;100841.06;;;9.51;75.32
11643;BME280;5877;50.930;6.918;2022-10-20T03:56:45;100982.78;;;10.50;74.82
11643;BME280;5877;50.930;6.918;2022-10-20T03:59:12;100880.03;;;9.87;74.72
11643;BME280;5877;50.930;6.918;2022-10-20T04:01:42;100686.81;;;8.69;74.24
11643;BME280;5877;50.930;6.918;2022-10-20T04:04:10;100984.59;;;10.50;74.90
11643;BME280;5877;50.930;6.918;2022-10-20T04:06:37;100366.91;;;6.46;74.67
11643;BME280;5877;50.930;6.918;2022-10-20T04:09:04;100923.22;;;9.98;74.59
11643;BME280;5877;50.930;6.918;2022-10-20T04:11:31;100613.09;;;7.98;74.88
11643;BME280;5877;50.930;6.918;2022-10-20T04:13:58;100986.63;;;10.41;74.63
11643;BME280;5877;50.930;6.918;2022-10-20T04:16:25;100815.69;;;9.52;74.60
11643;BME280;5877;50.930;6.918;2022-10-20T04:18:51;100476.25;;;7.10;74.49
11643;BME280;5877;50.930;6.918;2022-10-20T04:21:18;100447.94;;;7.07;74.39
11643;BME280;5877;50.930;6.918;2022-10-20T04:23:45;100569.84;;;7.95;74.61
11643;BME280;5877;50.930;6.918;2022-10-20T04:26:13;100824.13;;;9.40;75.04
11643;BME280;5877;50.930;6.918;2022-10-20T04:28:41;100777.56;;;9.36;74.22
11643;BME280;5877;50.930;6.918;2022-10-20T04:31:08;100590.06;;;8.28;74.36
11643;BME280;5877;50.930;6.918;2022-10-20T04:33:36;100621.31;;;8.36;74.46
11643;BME280;5877;50.930;6.918;2022-10-20T04:36:05;100935.75;;;10.42;74.19
11643;BME280;5877;50.930;6.918;2022-10-20T04:38:34;100847.97;;;9.98;74.31
11643;BME280;5877;50.930;6.918;2022-10-20T04:41:02;100856.25;;;9.95;73.51
11643;BME280;5877;50.930;6.918;2022-10-20T04:43:32;100565.50;;;8.15;73.67
11643;BME280;5877;50.930;6.918;2022-10-20T04:46:01;100823.97;;;9.88;73.46
11643;BME280;5877;50.930;6.918;2022-10-20T04:48:33;100928.28;;;10.59;73.39
11643;BME280;5877;50.930;6.918;2022-10-20T04:51:09;100865.75;;;10.23;73.54
11643;BME280;5877;50.930;6.918;2022-10-20T04:53:36;100616.38;;;8.74;73.25
11643;BME280;5877;50.930;6.918;2022-10-20T04:56:05;100516.00;;;8.01;72.90
11643;BME280;5877;50.930;6.918;2022-10-20T04:58:32;100908.50;;;10.63;72.85
11643;BME280;5877;50.930;6.918;2022-10-20T05:01:07;100812.28;;;10.11;72.78
11643;BME280;5877;50.930;6.918;2022-10-20T05:03:35;100757.44;;;9.83;72.52
11643;BME280;5877;50.930;6.918;2022-10-20T05:06:15;100892.53;;;10.64;72.85
11643;BME280;5877;50.930;6.918;2022-10-20T05:08:45;100378.19;;;7.42;72.93
11643;BME280;5877;50.930;6.918;2022-10-20T05:11:13;100882.84;;;10.58;72.82
11643;BME280;5877;50.930;6.918;2022-10-20T05:13:40;100816.13;;;10.08;72.73
11643;BME280;5877;50.930;6.918;2022-10-20T05:16:08;100355.69;;;7.34;72.60
11643;BME280;5877;50.930;6.918;2022-10-20T05:18:35;100836.91;;;10.23;72.88
11643;BME280;5877;50.930;6.918;2022-10-20T05:21:11;100603.88;;;8.83;72.82
11643;BME280;5877;50.930;6.918;2022-10-20T05:23:39;100632.50;;;9.04;72.96
11643;BME280;5877;50.930;6.918;2022-10-20T05:26:16;100387.84;;;7.41;72.79
11643;BME280;5877;50.930;6.918;2022-10-20T05:28:48;100857.03;;;10.42;73.21
11643;BME280;5877;50.930;6.918;2022-10-20T05:31:19;100861.88;;;10.45;73.40
11643;BME280;5877;50.930;6.918;2022-10-20T05:33:48;100861.28;;;10.43;73.53
11643;BME280;5877;50.930;6.918;2022-10-20T05:36:17;100852.63;;;10.36;73.71
11643;BME280;5877;50.930;6.918;2022-10-20T05:38:48;100857.88;;;10.36;73.84
11643;BME280;5877;50.930;6.918;2022-10-20T05:41:18;100728.22;;;9.53;73.77
11643;BME280;5877;50.930;6.918;2022-10-20T05:43:50;100702.00;;;9.39;73.39
11643;BME280;5877;50.930;6.918;2022-10-20T05:46:18;100849.00;;;10.37;73.29
11643;BME280;5877;50.930;6.918;2022-10-20T05:48:45;100466.94;;;7.96;73.56
11643;BME280;5877;50.930;6.918;2022-10-20T05:51:14;100575.91;;;8.63;73.37
11643;BME280;5877;50.930;6.918;2022-10-20T05:53:42;100501.41;;;8.33;73.55
11643;BME280;5877;50.930;6.918;2022-10-20T05:56:12;100826.00;;;10.39;73.93
11643;BME280;5877;50.930;6.918;2022-10-20T05:58:39;100827.38;;;10.41;73.25
11643;BME280;5877;50.930;6.918;2022-10-20T06:03:35;100841.69;;;10.46;73.52
11643;BME280;5877;50.930;6.918;2022-10-20T06:06:02;100837.25;;;10.46;73.25
11643;BME280;5877;50.930;6.918;2022-10-20T06:08:31;100352.28;;;7.40;73.22
11643;BME280;5877;50.930;6.918;2022-10-20T06:11:03;100759.03;;;9.97;73.22
11643;BME280;5877;50.930;6.918;2022-10-20T06:13:31;100775.38;;;9.99;73.23
11643;BME280;5877;50.930;6.918;2022-10-20T06:16:06;100580.94;;;8.91;73.26
11643;BME280;5877;50.930;6.918;2022-10-20T06:18:34;100556.59;;;8.77;72.83
11643;BME280;5877;50.930;6.918;2022-10-20T06:21:02;100861.03;;;10.58;73.10
11643;BME280;5877;50.930;6.918;2022-10-20T06:23:29;100866.09;;;10.59;73.17
11643;BME280;5877;50.930;6.918;2022-10-20T06:26:00;100641.16;;;9.18;72.98
11643;BME280;5877;50.930;6.918;2022-10-20T06:28:29;100862.44;;;10.60;73.04
11643;BME280;5877;50.930;6.918;2022-10-20T06:30:56;100783.84;;;10.07;73.19
11643;BME280;5877;50.930;6.918;2022-10-20T06:33:23;100560.81;;;8.78;72.84
11643;BME280;5877;50.930;6.918;2022-10-20T06:35:50;100552.34;;;8.76;73.61
11643;BME280;5877;50.930;6.918;2022-10-20T06:38:16;100867.47;;;10.68;73.36
11643;BME280;5877;50.930;6.918;2022-10-20T06:40:43;100607.13;;;9.11;72.99
11643;BME280;5877;50.930;6.918;2022-10-20T06:43:10;100869.28;;;10.74;72.60
11643;BME280;5877;50.930;6.918;2022-10-20T06:45:38;100506.84;;;8.44;72.61
11643;BME280;5877;50.930;6.918;2022-10-20T06:48:04;100776.78;;;10.28;72.70
11643;BME280;5877;50.930;6.918;2022-10-20T06:50:33;100802.09;;;10.54;72.64
11643;BME280;5877;50.930;6.918;2022-10-20T06:52:59;100801.47;;;10.58;72.82
11643;BME280;5877;50.930;6.918;2022-10-20T06:55:26;100839.94;;;10.91;72.87
11643;BME280;5877;50.930;6.918;2022-10-20T06:57:53;100685.63;;;9.90;72.09
11643;BME280;5877;50.930;6.918;2022-10-20T07:00:19;100860.34;;;10.95;72.74
11643;BME280;5877;50.930;6.918;2022-10-20T07:02:46;100675.38;;;9.82;72.30
11643;BME280;5877;50.930;6.918;2022-10-20T07:05:13;100529.81;;;8.89;72.11
11643;BME280;5877;50.930;6.918;2022-10-20T07:07:42;100488.75;;;8.56;71.86
11643;BME280;5877;50.930;6.918;2022-10-20T07:10:09;100894.22;;;11.10;72.12
11643;BME280;5877;50.930;6.918;2022-10-20T07:12:36;100731.97;;;10.23;71.75
11643;BME280;5877;50.930;6.918;2022-10-20T07:15:03;100866.56;;;11.01;72.32
11643;BME280;5877;50.930;6.918;2022-10-20T07:17:31;100346.09;;;7.81;71.95
11643;BME280;5877;50.930;6.918;2022-10-20T07:19:57;100788.72;;;10.68;71.73
11643;BME280;5877;50.930;6.918;2022-10-20T07:22:25;100871.72;;;11.27;71.66
11643;BME280;5877;50.930;6.918;2022-10-20T07:24:51;100707.75;;;10.27;71.66
11643;BME280;5877;50.930;6.918;2022-10-20T07:27:19;100686.78;;;10.21;71.82
11643;BME280;5877;50.930;6.918;2022-10-20T07:29:46;100789.84;;;10.92;72.23
11643;BME280;5877;50.930;6.918;2022-10-20T07:32:12;100712.31;;;10.45;72.41
11643;BME280;5877;50.930;6.918;2022-10-20T07:34:39;100770.69;;;10.85;71.79
11643;BME280;5877;50.930;6.918;2022-10-20T07:37:07;100276.16;;;7.83;71.78
11643;BME280;5877;50.930;6.918;2022-10-20T07:39:34;100538.38;;;9.49;71.29
11643;BME280;5877;50.930;6.918;2022-10-20T07:42:01;100734.16;;;10.77;71.52
11643;BME280;5877;50.930;6.918;2022-10-20T07:44:30;100531.66;;;9.66;70.92
11643;BME280;5877;50.930;6.918;2022-10-20T07:46:57;100513.13;;;9.61;70.35
11643;BME280;5877;50.930;6.918;2022-10-20T07:49:23;100757.28;;;11.31;70.53
11643;BME280;5877;50.930;6.918;2022-10-20T07:52:10;100705.13;;;11.03;69.94
11643;BME280;5877;50.930;6.918;2022-10-20T07:54:37;100748.81;;;11.29;69.61
11643;BME280;5877;50.930;6.918;2022-10-20T07:57:03;100778.50;;;11.61;69.27
11643;BME280;5877;50.930;6.918;2022-10-20T07:59:30;100795.41;;;11.72;69.46
11643;BME280;5877;50.930;6.918;2022-10-20T08:01:56;100811.88;;;11.92;69.57
11643;BME280;5877;50.930;6.918;2022-10-20T08:04:26;100640.38;;;10.91;68.96
11643;BME280;5877;50.930;6.918;2022-10-20T08:06:53;100695.03;;;11.32;69.10
11643;BME280;5877;50.930;6.918;2022-10-20T08:09:19;100848.94;;;12.34;68.61
11643;BME280;5877;50.930;6.918;2022-10-20T08:11:46;100284.19;;;8.86;68.34
11643;BME280;5877;50.930;6.918;2022-10-20T08:14:19;100823.50;;;12.28;68.70
11643;BME280;5877;50.930;6.918;2022-10-20T08:16:46;100509.53;;;10.38;68.29
11643;BME280;5877;50.930;6.918;2022-10-20T08:19:17;100674.75;;;11.39;68.49
11643;BME280;5877;50.930;6.918;2022-10-20T08:22:12;100486.28;;;10.10;68.82
11643;BME280;5877;50.930;6.918;2022-10-20T08:24:39;100807.88;;;12.08;68.52
11643;BME280;5877;50.930;6.918;2022-10-20T08:27:05;100645.16;;;11.25;67.54
11643;BME280;5877;50.930;6.918;2022-10-20T08:29:35;100862.00;;;12.65;66.86
11643;BME280;5877;50.930;6.918;2022-10-20T08:32:02;100727.53;;;11.62;67.49
11643;BME280;5877;50.930;6.918;2022-10-20T08:34:28;100691.59;;;11.56;67.90
11643;BME280;5877;50.930;6.918;2022-10-20T08:36:55;100535.31;;;10.41;67.56
11643;BME280;5877;50.930;6.918;2022-10-20T08:39:24;100539.56;;;10.67;66.99
11643;BME280;5877;50.930;6.918;2022-10-20T08:41:52;100727.56;;;12.06;67.23
11643;BME280;5877;50.930;6.918;2022-10-20T08:44:34;100584.72;;;11.25;66.59
11643;BME280;5877;50.930;6.918;2022-10-20T08:47:04;100604.47;;;11.34;66.53
11643;BME280;5877;50.930;6.918;2022-10-20T08:49:37;100490.78;;;10.59;66.47
11643;BME280;5877;50.930;6.918;2022-10-20T08:52:10;100351.19;;;9.76;66.87
11643;BME280;5877;50.930;6.918;2022-10-20T08:54:38;100630.69;;;11.41;67.29
11643;BME280;5877;50.930;6.918;2022-10-20T08:57:23;100835.88;;;12.46;67.74
11643;BME280;5877;50.930;6.918;2022-10-20T08:59:52;100576.59;;;10.84;67.62
11643;BME280;5877;50.930;6.918;2022-10-20T09:02:20;100584.38;;;10.97;68.06
11643;BME280;5877;50.930;6.918;2022-10-20T09:04:58;100822.72;;;12.46;68.32
11643;BME280;5877;50.930;6.918;2022-10-20T09:07:30;100518.50;;;10.49;68.65
11643;BME280;5877;50.930;6.918;2022-10-20T09:12:31;100697.34;;;11.47;69.15
11643;BME280;5877;50.930;6.918;2022-10-20T09:14:58;100786.91;;;12.01;68.81
11643;BME280;5877;50.930;6.918;2022-10-20T09:17:25;100343.69;;;9.48;67.67
11643;BME280;5877;50.930;6.918;2022-10-20T09:19:54;100750.81;;;12.27;67.74
11643;BME280;5877;50.930;6.918;2022-10-20T09:22:23;100317.66;;;9.53;67.33
11643;BME280;5877;50.930;6.918;2022-10-20T09:24:54;100843.94;;;12.69;67.62
11643;BME280;5877;50.930;6.918;2022-10-20T09:27:34;100598.78;;;11.13;67.92
11643;BME280;5877;50.930;6.918;2022-10-20T09:32:56;100732.09;;;11.98;69.51
11643;BME280;5877;50.930;6.918;2022-10-20T09:35:27;100813.88;;;12.58;69.10
11643;BME280;5877;50.930;6.918;2022-10-20T09:37:59;100758.78;;;12.39;69.16
11643;BME280;5877;50.930;6.918;2022-10-20T09:40:27;100623.47;;;11.73;67.96
11643;BME280;5877;50.930;6.918;2022-10-20T09:43:00;100711.06;;;12.35;68.46
11643;BME280;5877;50.930;6.918;2022-10-20T09:45:31;100739.28;;;12.46;69.00
11643;BME280;5877;50.930;6.918;2022-10-20T09:48:21;100785.03;;;12.63;68.11
11643;BME280;5877;50.930;6.918;2022-10-20T09:50:52;100727.28;;;12.32;68.22
11643;BME280;5877;50.930;6.918;2022-10-20T09:53:32;100723.41;;;12.34;68.35
11643;BME280;5877;50.930;6.918;2022-10-20T09:55:59;100729.63;;;12.40;68.80
11643;BME280;5877;50.930;6.918;2022-10-20T09:58:34;100597.84;;;11.50;69.14
11643;BME280;5877;50.930;6.918;2022-10-20T10:03:42;100784.53;;;11.68;83.48
11643;BME280;5877;50.930;6.918;2022-10-20T10:06:27;100843.38;;;11.99;81.50
11643;BME280;5877;50.930;6.918;2022-10-20T10:08:57;100845.63;;;11.95;80.73
11643;BME280;5877;50.930;6.918;2022-10-20T10:11:34;100853.25;;;12.03;79.90
11643;BME280;5877;50.930;6.918;2022-10-20T10:14:02;100820.03;;;11.84;79.63
11643;BME280;5877;50.930;6.918;2022-10-20T10:16:40;100597.03;;;10.50;79.02
11643;BME280;5877;50.930;6.918;2022-10-20T10:19:15;100535.06;;;10.18;78.36
11643;BME280;5877;50.930;6.918;2022-10-20T10:22:02;100541.56;;;10.08;77.20
11643;BME280;5877;50.930;6.918;2022-10-20T10:27:34;100724.16;;;11.55;77.76
11643;BME280;5877;50.930;6.918;2022-10-20T10:32:55;100466.69;;;9.81;79.53
11643;BME280;5877;50.930;6.918;2022-10-20T10:37:59;100607.75;;;10.42;81.38
11643;BME280;5877;50.930;6.918;2022-10-20T10:40:37;100832.00;;;11.80;83.38
11643;BME280;5877;50.930;6.918;2022-10-20T10:45:58;100812.31;;;11.89;84.77
11643;BME280;5877;50.930;6.918;2022-10-20T10:56:48;100799.94;;;11.90;83.46
11643;BME280;5877;50.930;6.918;2022-10-20T10:59:32;100709.72;;;11.39;83.20
11643;BME280;5877;50.930;6.918;2022-10-20T11:05:11;100762.97;;;11.28;85.45
11643;BME280;5877;50.930;6.918;2022-10-20T11:08:06;100829.66;;;11.65;86.83
11643;BME280;5877;50.930;6.918;2022-10-20T11:10:49;100837.91;;;11.69;86.86
11643;BME280;5877;50.930;6.918;2022-10-20T11:16:38;100835.28;;;11.69;87.14
11643;BME280;5877;50.930;6.918;2022-10-20T11:29:46;100591.94;;;10.17;87.79
11643;BME280;5877;50.930;6.918;2022-10-20T11:32:24;100831.03;;;11.68;87.61
11643;BME280;5877;50.930;6.918;2022-10-20T11:35:04;100828.47;;;11.61;89.06
11643;BME280;5877;50.930;6.918;2022-10-20T11:37:48;100622.16;;;10.33;89.93
11643;BME280;5877;50.930;6.918;2022-10-20T11:40:26;100504.09;;;9.57;89.81
11643;BME280;5877;50.930;6.918;2022-10-20T11:45:32;100820.38;;;11.63;91.57
11643;BME280;5877;50.930;6.918;2022-10-20T11:48:30;100818.69;;;11.68;91.62
11643;BME280;5877;50.930;6.918;2022-10-20T11:56:52;100801.53;;;11.66;91.10
11643;BME280;5877;50.930;6.918;2022-10-20T11:59:53;100712.22;;;11.03;91.25
11643;BME280;5877;50.930;6.918;2022-10-20T12:05:26;100775.72;;;11.56;91.40
11643;BME280;5877;50.930;6.918;2022-10-20T12:11:08;100752.38;;;11.42;91.62
11643;BME280;5877;50.930;6.918;2022-10-20T12:19:30;100680.28;;;11.06;90.66
11643;BME280;5877;50.930;6.918;2022-10-20T12:27:30;100466.28;;;9.77;90.24
11643;BME280;5877;50.930;6.918;2022-10-20T12:30:39;100546.06;;;10.39;89.85
11643;BME280;5877;50.930;6.918;2022-10-20T12:32:56;100481.63;;;10.12;89.95
11643;BME280;5877;50.930;6.918;2022-10-20T12:35:28;100735.53;;;11.74;90.02
11643;BME280;5877;50.930;6.918;2022-10-20T12:38:01;100714.50;;;11.74;90.36
11643;BME280;5877;50.930;6.918;2022-10-20T12:40:32;100576.59;;;10.84;89.65
11643;BME280;5877;50.930;6.918;2022-10-20T12:43:00;100682.25;;;11.60;90.20
11643;BME280;5877;50.930;6.918;2022-10-20T12:45:38;100652.16;;;11.56;90.07
11643;BME280;5877;50.930;6.918;2022-10-20T12:48:08;100525.75;;;10.78;89.07
11643;BME280;5877;50.930;6.918;2022-10-20T12:50:44;100625.56;;;11.46;89.42
11643;BME280;5877;50.930;6.918;2022-10-20T13:03:46;100742.84;;;12.52;87.71
11643;BME280;5877;50.930;6.918;2022-10-20T13:06:38;100724.63;;;12.50;87.56
11643;BME280;5877;50.930;6.918;2022-10-20T13:14:12;100714.66;;;12.71;86.97
11643;BME280;5877;50.930;6.918;2022-10-20T13:16:49;100635.78;;;12.16;86.97
11643;BME280;5877;50.930;6.918;2022-10-20T13:19:22;100731.28;;;12.71;87.41
11643;BME280;5877;50.930;6.918;2022-10-20T13:21:50;100658.94;;;12.25;86.68
11643;BME280;5877;50.930;6.918;2022-10-20T13:24:24;100724.63;;;12.68;86.47
11643;BME280;5877;50.930;6.918;2022-10-20T13:26:54;100507.38;;;11.39;86.53
11643;BME280;5877;50.930;6.918;2022-10-20T13:29:30;100589.91;;;11.93;86.92
11643;BME280;5877;50.930;6.918;2022-10-20T13:34:57;100539.94;;;11.57;86.26
11643;BME280;5877;50.930;6.918;2022-10-20T13:37:56;100708.81;;;12.68;86.69
11643;BME280;5877;50.930;6.918;2022-10-20T13:40:38;100425.34;;;11.01;86.83
11643;BME280;5877;50.930;6.918;2022-10-20T13:43:23;100516.69;;;11.72;87.27
11643;BME280;5877;50.930;6.918;2022-10-20T13:46:06;100444.47;;;11.26;85.84
11643;BME280;5877;50.930;6.918;2022-10-20T13:51:19;100515.03;;;11.78;86.09
11643;BME280;5877;50.930;6.918;2022-10-20T13:53:50;100504.19;;;12.04;85.96
11643;BME280;5877;50.930;6.918;2022-10-20T13:56:26;100535.13;;;12.20;84.99
11643;BME280;5877;50.930;6.918;2022-10-20T14:01:34;100101.41;;;9.57;84.52
11643;BME280;5877;50.930;6.918;2022-10-20T14:04:28;100691.25;;;13.46;84.08
11643;BME280;5877;50.930;6.918;2022-10-20T14:07:02;100428.47;;;11.76;84.84
11643;BME280;5877;50.930;6.918;2022-10-20T14:09:31;100588.03;;;12.72;84.01
11643;BME280;5877;50.930;6.918;2022-10-20T14:12:04;100698.69;;;13.49;84.25
11643;BME280;5877;50.930;6.918;2022-10-20T14:14:32;100286.22;;;11.13;84.21
11643;BME280;5877;50.930;6.918;2022-10-20T14:17:05;100357.88;;;11.61;83.55
11643;BME280;5877;50.930;6.918;2022-10-20T14:19:32;100681.63;;;13.75;83.49
11643;BME280;5877;50.930;6.918;2022-10-20T14:22:15;100281.88;;;11.18;82.66
11643;BME280;5877;50.930;6.918;2022-10-20T14:24:45;100559.41;;;12.76;83.29
11643;BME280;5877;50.930;6.918;2022-10-20T14:27:25;100509.66;;;12.44;83.55
11643;BME280;5877;50.930;6.918;2022-10-20T14:29:56;100657.44;;;13.43;84.05
11643;BME280;5877;50.930;6.918;2022-10-20T14:32:25;100547.50;;;12.73;83.89
11643;BME280;5877;50.930;6.918;2022-10-20T14:34:56;100616.97;;;13.25;83.76
11643;BME280;5877;50.930;6.918;2022-10-20T14:37:45;100641.38;;;13.68;83.05
11643;BME280;5877;50.930;6.918;2022-10-20T14:40:19;100668.66;;;13.85;82.56
11643;BME280;5877;50.930;6.918;2022-10-20T14:42:47;100487.50;;;12.63;83.05
11643;BME280;5877;50.930;6.918;2022-10-20T14:45:18;100322.69;;;11.62;82.13
11643;BME280;5877;50.930;6.918;2022-10-20T14:47:47;100189.41;;;10.86;82.71
11643;BME280;5877;50.930;6.918;2022-10-20T14:50:35;100568.84;;;13.18;82.75
11643;BME280;5877;50.930;6.918;2022-10-20T14:55:50;100588.06;;;12.95;83.24
11643;BME280;5877;50.930;6.918;2022-10-20T15:01:32;100662.34;;;13.39;84.18
11643;BME280;5877;50.930;6.918;2022-10-20T15:04:26;100348.38;;;11.19;83.62
11643;BME280;5877;50.930;6.918;2022-10-20T15:07:18;100668.66;;;13.26;84.52
11643;BME280;5877;50.930;6.918;2022-10-20T15:09:55;100424.69;;;11.72;84.58
11643;BME280;5877;50.930;6.918;2022-10-20T15:12:32;100667.38;;;13.29;84.70
11643;BME280;5877;50.930;6.918;2022-10-20T15:20:31;100657.19;;;13.21;85.06
11643;BME280;5877;50.930;6.918;2022-10-20T15:30:56;100431.97;;;11.88;84.63
11643;BME280;5877;50.930;6.918;2022-10-20T15:33:23;100657.19;;;13.21;84.70
11643;BME280;5877;50.930;6.918;2022-10-20T15:35:50;100266.06;;;10.77;84.74
11643;BME280;5877;50.930;6.918;2022-10-20T15:38:18;100267.47;;;10.61;84.38
11643;BME280;5877;50.930;6.918;2022-10-20T15:40:46;100311.84;;;10.99;84.86
11643;BME280;5877;50.930;6.918;2022-10-20T15:43:15;100508.81;;;12.20;85.27